Pagina principale
METAR-TAF:

METAR-TAF

Aeroporti :

Biserta, Tunisia

latitudine: 37-15N, longitudine: 009-48E, altezza: 5 m

Osservazione

Il bollettino è stato emesso 1 ora e 4 minuti fa, alle 11:00 UTC
Vento 15 kt da ovest
Temperature 19°C
Umidità 60%
Pressione 1018 hPa
Visibilità 10 km o più
Nubi sparse ad un'altezza di 2000 ft

METAR: DTTB 191100Z 28015KT 9999 SCT020 19/11 Q1018

Ora: 13:04 (12:04 UTC)

Previsione

Il bollettino è stato emesso 2 ore e 52 minuti fa, alle 09:12 UTC
Previsione valida dal 19 alle 10 UTC al 19 alle 19 UTC
Vento 15 kt da ovest/nord-ovest
Visibilità 10 km o più
Nubi sparse ad un'altezza di 2000 ft
Probabilità 40%
dal 19 alle 10 UTC al 19 alle 13 UTC
Visibilità: 3000 m
Nuvoloso ad un'altezza di 1500 ft
pioggia debole
Temporaneamente
dal 19 alle 12 UTC al 19 alle 18 UTC
Vento 25 kt da ovest/nord-ovest

TAF: DTTB 190912Z 1910/1919 29015KT 9999 SCT020 PROB40 1910/1913 3000 -RA BKN015 TEMPO 1912/1918 29025KT

Osservazioni e previsioni meteorologiche di più di 4000 aeroporti (messaggi METAR e TAF).

Le stazioni disponibili sono rappresentate dai dischi gialli e rossi sulla carta.

Puntare il mouse per vedere il nome della stazione.

Clicca sopra per visualizzare le osservazioni e previsioni meteorologiche.

Per cambiare la mappa : fare clic sui pulsanti verdi con una croce nera per ingrandire, il pulsante verde con un trattino per diminuire, o sulla freccia verde per le mappe adiacenti.


METAR-TAF: